Time;durP1;ratioP1;P1;durP2;ratioP2;P2;SDS_P1;SDS_P2;PMS_P1;PMS_P2;Temp;Humidity;BMP_temperature;BMP_pressure;BME280_temperature;BME280_humidity;BME280_pressure;Samples;Min_cycle;Max_cycle;Signal;HPM_P1;HPM_P2
2023/04/24 00:01:39;;;;;;;5.70;3.83;;;;;;;;;;4997904;28;20054;-76
2023/04/24 00:04:06;;;;;;;5.15;3.97;;;;;;;;;;5032872;28;20356;-75
2023/04/24 00:06:33;;;;;;;5.80;4.57;;;;;;;;;;5017398;28;20418;-77
2023/04/24 00:09:00;;;;;;;6.30;5.32;;;;;;;;;;5017374;28;20053;-76
2023/04/24 00:11:26;;;;;;;6.45;5.47;;;;;;;;;;5034800;28;20046;-76
2023/04/24 00:13:53;;;;;;;6.28;5.45;;;;;;;;;;5035092;28;20065;-75
2023/04/24 00:16:19;;;;;;;8.60;6.00;;;;;;;;;;5016913;28;20132;-76
2023/04/24 00:18:45;;;;;;;7.97;6.10;;;;;;;;;;5016019;28;20087;-76
2023/04/24 00:21:11;;;;;;;6.95;6.25;;;;;;;;;;5033336;28;20049;-76
2023/04/24 00:23:37;;;;;;;8.38;6.20;;;;;;;;;;5016811;28;20048;-76
2023/04/24 00:26:03;;;;;;;10.32;6.47;;;;;;;;;;5034806;28;20049;-76
2023/04/24 00:28:29;;;;;;;7.88;5.88;;;;;;;;;;5034639;28;20090;-75
2023/04/24 00:30:55;;;;;;;7.30;5.93;;;;;;;;;;5016905;28;20056;-76
2023/04/24 00:33:21;;;;;;;6.93;5.75;;;;;;;;;;5054911;28;20126;-76
2023/04/24 00:35:47;;;;;;;6.55;4.90;;;;;;;;;;5054828;28;20045;-75
2023/04/24 00:38:13;;;;;;;5.60;3.83;;;;;;;;;;5054829;28;20049;-76
2023/04/24 00:40:39;;;;;;;5.47;3.55;;;;;;;;;;5054545;28;20044;-75
2023/04/24 00:43:05;;;;;;;5.93;2.90;;;;;;;;;;5054847;28;20060;-76
2023/04/24 00:45:32;;;;;;;3.60;2.75;;;;;;;;;;5034480;28;20049;-76
2023/04/24 00:47:58;;;;;;;2.90;1.88;;;;;;;;;;5055818;28;20413;-75
2023/04/24 00:50:25;;;;;;;2.33;1.70;;;;;;;;;;5046732;28;20045;-76
2023/04/24 00:52:51;;;;;;;2.13;1.63;;;;;;;;;;5054486;28;20048;-75
2023/04/24 00:55:17;;;;;;;3.35;2.05;;;;;;;;;;5053018;28;20112;-75
2023/04/24 00:57:44;;;;;;;3.65;1.77;;;;;;;;;;5055000;28;20049;-76
2023/04/24 01:00:11;;;;;;;2.08;1.60;;;;;;;;;;5051515;28;20053;-76
2023/04/24 01:02:40;;;;;;;4.53;2.08;;;;;;;;;;5052457;28;20056;-75
2023/04/24 01:05:06;;;;;;;2.53;1.60;;;;;;;;;;5050346;28;20088;-75
2023/04/24 01:07:33;;;;;;;2.53;1.70;;;;;;;;;;5054132;28;20048;-76
2023/04/24 01:09:59;;;;;;;1.73;1.60;;;;;;;;;;5053931;28;20397;-75
2023/04/24 01:12:25;;;;;;;2.22;1.70;;;;;;;;;;5053824;28;20470;-75
2023/04/24 01:14:51;;;;;;;4.88;1.70;;;;;;;;;;5054013;28;20059;-76
2023/04/24 01:17:17;;;;;;;2.08;1.70;;;;;;;;;;5052721;28;20378;-75
2023/04/24 01:19:44;;;;;;;2.60;1.70;;;;;;;;;;5053727;28;20527;-75
2023/04/24 01:22:16;;;;;;;3.55;1.80;;;;;;;;;;5053561;28;20041;-75
2023/04/24 01:24:43;;;;;;;3.15;1.73;;;;;;;;;;5053310;28;20037;-75
2023/04/24 01:27:10;;;;;;;2.00;1.80;;;;;;;;;;5053624;28;20087;-75
2023/04/24 01:29:37;;;;;;;2.50;1.80;;;;;;;;;;5045603;28;20056;-75
2023/04/24 01:32:04;;;;;;;2.00;1.70;;;;;;;;;;5052373;28;20124;-75
2023/04/24 01:34:30;;;;;;;1.90;1.70;;;;;;;;;;5035359;28;20409;-75
2023/04/24 01:36:56;;;;;;;2.30;1.80;;;;;;;;;;5042724;28;20041;-75
2023/04/24 01:39:25;;;;;;;3.83;1.90;;;;;;;;;;5053444;28;20051;-75
2023/04/24 01:41:52;;;;;;;3.17;2.00;;;;;;;;;;5037419;28;20045;-75
2023/04/24 01:44:18;;;;;;;2.63;2.00;;;;;;;;;;5015251;28;20050;-75
2023/04/24 01:46:45;;;;;;;2.13;1.85;;;;;;;;;;5033569;28;20065;-75
2023/04/24 01:49:11;;;;;;;2.22;2.00;;;;;;;;;;5015070;28;20088;-75
2023/04/24 01:51:37;;;;;;;3.95;2.00;;;;;;;;;;5013904;28;20148;-76
2023/04/24 01:54:03;;;;;;;4.07;2.60;;;;;;;;;;5031552;28;20041;-76
2023/04/24 01:56:30;;;;;;;4.55;2.40;;;;;;;;;;4995909;28;20431;-75
2023/04/24 01:58:56;;;;;;;3.60;2.25;;;;;;;;;;4996100;28;20052;-76
2023/04/24 02:01:24;;;;;;;2.25;2.03;;;;;;;;;;5013361;28;20053;-76
2023/04/24 02:03:50;;;;;;;2.97;2.50;;;;;;;;;;5013415;28;20041;-75
2023/04/24 02:06:16;;;;;;;3.50;2.58;;;;;;;;;;5013496;28;20050;-75
2023/04/24 02:08:42;;;;;;;4.32;3.05;;;;;;;;;;5031805;28;20038;-76
2023/04/24 02:11:09;;;;;;;3.22;2.70;;;;;;;;;;5015009;28;20395;-76
2023/04/24 02:13:37;;;;;;;4.70;3.05;;;;;;;;;;5032960;28;20083;-75
2023/04/24 02:16:03;;;;;;;4.88;2.88;;;;;;;;;;5032469;28;20052;-75
2023/04/24 02:18:30;;;;;;;3.85;3.20;;;;;;;;;;5032673;28;20049;-75
2023/04/24 02:20:56;;;;;;;3.60;3.20;;;;;;;;;;4997729;28;20057;-76
2023/04/24 02:23:22;;;;;;;4.20;3.70;;;;;;;;;;5032664;28;20049;-76
2023/04/24 02:25:48;;;;;;;4.78;3.50;;;;;;;;;;5032398;28;20045;-76
2023/04/24 02:28:14;;;;;;;5.40;3.92;;;;;;;;;;5032888;28;20068;-76
2023/04/24 02:30:40;;;;;;;5.00;3.88;;;;;;;;;;5032317;28;20045;-75
2023/04/24 02:33:07;;;;;;;6.32;4.47;;;;;;;;;;5048208;28;20490;-75
2023/04/24 02:35:33;;;;;;;5.22;3.88;;;;;;;;;;5052568;28;20049;-75
2023/04/24 02:37:59;;;;;;;5.32;4.38;;;;;;;;;;5051178;28;20041;-75
2023/04/24 02:40:25;;;;;;;6.25;4.57;;;;;;;;;;5052212;28;20040;-75
2023/04/24 02:42:51;;;;;;;6.07;4.55;;;;;;;;;;5052504;28;20073;-75
2023/04/24 02:45:17;;;;;;;5.00;4.50;;;;;;;;;;5052320;28;20437;-75
2023/04/24 02:47:43;;;;;;;5.93;4.50;;;;;;;;;;5051243;28;20041;-75
2023/04/24 02:50:09;;;;;;;7.15;5.30;;;;;;;;;;5050780;28;20123;-75
2023/04/24 02:52:35;;;;;;;5.68;5.10;;;;;;;;;;5051786;28;20051;-75
2023/04/24 02:55:01;;;;;;;5.90;5.15;;;;;;;;;;5051155;28;20098;-75
2023/04/24 02:57:27;;;;;;;5.85;5.20;;;;;;;;;;5050339;28;20439;-75
2023/04/24 02:59:53;;;;;;;6.00;5.25;;;;;;;;;;5043636;28;20128;-76
2023/04/24 03:02:20;;;;;;;6.10;5.50;;;;;;;;;;5051026;28;20088;-75
2023/04/24 03:04:48;;;;;;;6.18;5.45;;;;;;;;;;5050625;28;20060;-75
2023/04/24 03:07:15;;;;;;;6.07;5.43;;;;;;;;;;5050489;28;20076;-75
2023/04/24 03:09:41;;;;;;;6.65;5.95;;;;;;;;;;5051788;28;20072;-75
2023/04/24 03:12:07;;;;;;;6.53;5.93;;;;;;;;;;5052244;28;20183;-75
2023/04/24 03:14:33;;;;;;;6.70;6.00;;;;;;;;;;5052199;28;20091;-76
2023/04/24 03:16:59;;;;;;;7.28;6.53;;;;;;;;;;5050765;28;20091;-75
2023/04/24 03:19:25;;;;;;;8.63;6.47;;;;;;;;;;5051007;28;20045;-75
2023/04/24 03:21:51;;;;;;;7.32;6.63;;;;;;;;;;5051758;28;20049;-75
2023/04/24 03:24:17;;;;;;;7.95;7.15;;;;;;;;;;5051958;28;20041;-75
2023/04/24 03:26:43;;;;;;;7.65;6.88;;;;;;;;;;5051755;28;20124;-75
2023/04/24 03:29:09;;;;;;;7.90;7.10;;;;;;;;;;5051566;28;20525;-75
2023/04/24 03:31:35;;;;;;;8.45;7.65;;;;;;;;;;5051740;28;20535;-74
2023/04/24 03:34:01;;;;;;;8.95;8.05;;;;;;;;;;5034220;28;20087;-75
2023/04/24 03:36:27;;;;;;;10.45;8.50;;;;;;;;;;5017736;28;20060;-75
2023/04/24 03:38:53;;;;;;;9.45;8.55;;;;;;;;;;5017864;28;20118;-74
2023/04/24 03:41:19;;;;;;;10.13;9.07;;;;;;;;;;5049692;28;20493;-75
2023/04/24 03:43:45;;;;;;;11.20;9.85;;;;;;;;;;5033103;28;20041;-75
2023/04/24 03:46:11;;;;;;;11.57;10.30;;;;;;;;;;5035685;28;20131;-74
2023/04/24 03:48:37;;;;;;;11.85;9.63;;;;;;;;;;5051481;28;20041;-75
2023/04/24 03:51:03;;;;;;;12.77;10.65;;;;;;;;;;5052338;28;20048;-74
2023/04/24 03:53:29;;;;;;;11.75;10.55;;;;;;;;;;5047665;28;20060;-74
2023/04/24 03:55:56;;;;;;;13.68;11.55;;;;;;;;;;5030704;28;20041;-75
2023/04/24 03:58:22;;;;;;;14.15;11.10;;;;;;;;;;5032311;28;20180;-74
2023/04/24 04:00:48;;;;;;;12.88;11.57;;;;;;;;;;5014112;28;20183;-74
2023/04/24 04:03:14;;;;;;;13.20;11.75;;;;;;;;;;5030905;28;20053;-75
2023/04/24 04:05:40;;;;;;;12.32;11.00;;;;;;;;;;5032056;28;20375;-76
2023/04/24 04:08:06;;;;;;;14.02;11.95;;;;;;;;;;5017463;28;20097;-75
2023/04/24 04:10:32;;;;;;;13.95;11.73;;;;;;;;;;5052593;28;20041;-75
2023/04/24 04:12:58;;;;;;;13.35;11.70;;;;;;;;;;5037312;28;20048;-75
2023/04/24 04:15:24;;;;;;;11.88;10.65;;;;;;;;;;5020421;28;20454;-75
2023/04/24 04:17:50;;;;;;;13.00;10.55;;;;;;;;;;5055219;28;20071;-75
2023/04/24 04:20:16;;;;;;;13.02;11.23;;;;;;;;;;5037480;28;20043;-75
2023/04/24 04:22:42;;;;;;;12.23;10.95;;;;;;;;;;5054241;28;20076;-75
2023/04/24 04:25:09;;;;;;;17.85;10.15;;;;;;;;;;5036498;28;20052;-75
2023/04/24 04:27:35;;;;;;;11.05;9.88;;;;;;;;;;5055143;28;20064;-76
2023/04/24 04:30:04;;;;;;;11.13;10.00;;;;;;;;;;5020718;28;20045;-75
2023/04/24 04:32:31;;;;;;;10.63;9.52;;;;;;;;;;5036853;28;20110;-75
2023/04/24 04:34:57;;;;;;;11.40;9.82;;;;;;;;;;5054742;28;20067;-75
2023/04/24 04:37:23;;;;;;;10.38;9.38;;;;;;;;;;5037179;28;20040;-76
2023/04/24 04:39:49;;;;;;;10.00;9.00;;;;;;;;;;5053366;28;20052;-75
2023/04/24 04:42:15;;;;;;;10.32;9.25;;;;;;;;;;5052449;28;20041;-75
2023/04/24 04:44:41;;;;;;;9.88;8.82;;;;;;;;;;5054793;28;20430;-75
2023/04/24 04:47:08;;;;;;;10.07;8.95;;;;;;;;;;5036446;28;20052;-76
2023/04/24 04:49:34;;;;;;;10.70;9.02;;;;;;;;;;5054575;28;20048;-75
2023/04/24 04:52:00;;;;;;;10.68;9.27;;;;;;;;;;5036347;28;20060;-75
2023/04/24 04:54:26;;;;;;;9.50;8.32;;;;;;;;;;5054369;28;20120;-76
2023/04/24 04:56:52;;;;;;;9.90;8.50;;;;;;;;;;5019396;28;20102;-76
2023/04/24 04:59:19;;;;;;;10.95;8.60;;;;;;;;;;5054251;28;20077;-76
2023/04/24 05:01:45;;;;;;;10.13;8.40;;;;;;;;;;5036198;28;20045;-76
2023/04/24 05:04:11;;;;;;;10.48;9.35;;;;;;;;;;5036589;28;20049;-76
2023/04/24 05:06:37;;;;;;;7.63;5.90;;;;;;;;;;5036232;28;20099;-76
2023/04/24 05:09:03;;;;;;;5.78;3.70;;;;;;;;;;5054196;28;20132;-76
2023/04/24 05:11:30;;;;;;;4.78;4.15;;;;;;;;;;5051731;28;20055;-76
2023/04/24 05:13:56;;;;;;;5.18;3.90;;;;;;;;;;5051791;28;20120;-76
2023/04/24 05:16:22;;;;;;;5.78;4.53;;;;;;;;;;5054285;28;20072;-76
2023/04/24 05:18:48;;;;;;;5.90;4.80;;;;;;;;;;5035244;28;20410;-76
2023/04/24 05:21:14;;;;;;;6.45;5.07;;;;;;;;;;5052764;28;20040;-76
2023/04/24 05:23:40;;;;;;;5.07;4.03;;;;;;;;;;5035537;28;20076;-76
2023/04/24 05:26:06;;;;;;;5.53;4.50;;;;;;;;;;5035660;28;20453;-75
2023/04/24 05:28:32;;;;;;;6.28;4.93;;;;;;;;;;5035847;28;20509;-76
2023/04/24 05:30:59;;;;;;;8.40;5.30;;;;;;;;;;5035357;28;20084;-76
2023/04/24 05:33:25;;;;;;;5.45;4.55;;;;;;;;;;5036089;28;20060;-76
2023/04/24 05:35:51;;;;;;;6.28;5.15;;;;;;;;;;5034227;28;20173;-76
2023/04/24 05:38:19;;;;;;;6.32;5.15;;;;;;;;;;5053562;28;20044;-76
2023/04/24 05:40:45;;;;;;;7.03;5.28;;;;;;;;;;5033745;28;20053;-76
2023/04/24 05:43:11;;;;;;;7.38;5.00;;;;;;;;;;5052988;28;20041;-76
2023/04/24 05:45:38;;;;;;;7.00;5.28;;;;;;;;;;5035191;28;20355;-76
2023/04/24 05:48:04;;;;;;;6.50;5.15;;;;;;;;;;5035823;28;20049;-76
2023/04/24 05:50:30;;;;;;;6.88;4.68;;;;;;;;;;5052137;28;20045;-76
2023/04/24 05:52:58;;;;;;;5.57;4.07;;;;;;;;;;5017671;28;20070;-76
2023/04/24 05:55:25;;;;;;;5.63;4.20;;;;;;;;;;5014725;28;20076;-77
2023/04/24 05:57:51;;;;;;;6.30;4.63;;;;;;;;;;5041258;28;20056;-78
2023/04/24 06:00:19;;;;;;;8.43;4.55;;;;;;;;;;5053151;28;20123;-75
2023/04/24 06:02:45;;;;;;;5.15;3.70;;;;;;;;;;5035498;28;20075;-76
2023/04/24 06:05:11;;;;;;;5.65;4.03;;;;;;;;;;5035296;28;20045;-76
2023/04/24 06:07:37;;;;;;;6.15;4.38;;;;;;;;;;5053049;28;20051;-76
2023/04/24 06:10:04;;;;;;;6.15;3.92;;;;;;;;;;5034338;28;20046;-76
2023/04/24 06:12:31;;;;;;;6.43;4.57;;;;;;;;;;5052760;28;20045;-76
2023/04/24 06:14:57;;;;;;;7.32;5.10;;;;;;;;;;5052991;28;20056;-76
2023/04/24 06:17:23;;;;;;;6.93;5.05;;;;;;;;;;5035206;28;20444;-76
2023/04/24 06:19:49;;;;;;;7.78;4.60;;;;;;;;;;5034755;28;20503;-76
2023/04/24 06:22:15;;;;;;;5.40;4.30;;;;;;;;;;5052714;28;20504;-76
2023/04/24 06:24:41;;;;;;;7.88;5.25;;;;;;;;;;5048628;28;20049;-76
2023/04/24 06:27:07;;;;;;;7.18;5.22;;;;;;;;;;5059267;28;20045;-76
2023/04/24 06:29:34;;;;;;;8.57;5.65;;;;;;;;;;5052139;28;20052;-76
2023/04/24 06:32:00;;;;;;;8.38;5.95;;;;;;;;;;5052709;28;20359;-76
2023/04/24 06:34:26;;;;;;;10.73;5.90;;;;;;;;;;5052467;28;20053;-76
2023/04/24 06:36:52;;;;;;;9.60;5.80;;;;;;;;;;5040492;28;20041;-76
2023/04/24 06:39:18;;;;;;;8.07;5.45;;;;;;;;;;5045245;28;20041;-75
2023/04/24 06:41:44;;;;;;;7.65;5.20;;;;;;;;;;5037709;28;20137;-76
2023/04/24 06:44:10;;;;;;;9.48;5.70;;;;;;;;;;5053280;28;20076;-77
2023/04/24 06:46:36;;;;;;;6.55;5.43;;;;;;;;;;5051512;28;20094;-76
2023/04/24 06:49:02;;;;;;;11.05;6.03;;;;;;;;;;5034189;28;20048;-76
2023/04/24 06:51:28;;;;;;;10.73;6.10;;;;;;;;;;5052265;28;20514;-76
2023/04/24 06:53:55;;;;;;;9.70;5.45;;;;;;;;;;5027053;28;20122;-76
2023/04/24 06:56:22;;;;;;;8.65;5.53;;;;;;;;;;5014773;28;20045;-76
2023/04/24 06:58:48;;;;;;;7.47;4.90;;;;;;;;;;5032580;28;20049;-77
2023/04/24 07:01:14;;;;;;;8.23;4.40;;;;;;;;;;5042819;28;20049;-76
2023/04/24 07:03:40;;;;;;;9.70;4.55;;;;;;;;;;5018071;28;20432;-76
2023/04/24 07:06:07;;;;;;;5.90;3.47;;;;;;;;;;5050562;28;20048;-77
2023/04/24 07:08:33;;;;;;;5.35;3.58;;;;;;;;;;5032451;28;20047;-76
2023/04/24 07:10:59;;;;;;;5.75;3.20;;;;;;;;;;5049504;28;20049;-76
2023/04/24 07:13:26;;;;;;;6.70;3.03;;;;;;;;;;5015081;28;20037;-76
2023/04/24 07:15:53;;;;;;;4.68;2.63;;;;;;;;;;5050654;28;20028;-76
2023/04/24 07:18:20;;;;;;;7.22;3.00;;;;;;;;;;5043487;28;20103;-77
2023/04/24 07:20:46;;;;;;;4.38;2.42;;;;;;;;;;5032645;28;20456;-77
2023/04/24 07:23:12;;;;;;;4.57;2.40;;;;;;;;;;5047213;28;20106;-77
2023/04/24 07:25:39;;;;;;;4.22;2.40;;;;;;;;;;5031147;28;20044;-77
2023/04/24 07:28:08;;;;;;;5.53;2.53;;;;;;;;;;5015612;28;20084;-76
2023/04/24 07:30:34;;;;;;;5.80;2.95;;;;;;;;;;5033058;28;20083;-78
2023/04/24 07:33:00;;;;;;;6.10;2.80;;;;;;;;;;5048471;28;20137;-77
2023/04/24 07:35:27;;;;;;;4.78;2.88;;;;;;;;;;5043372;28;20117;-77
2023/04/24 07:37:56;;;;;;;7.22;3.05;;;;;;;;;;5052097;28;20041;-77
2023/04/24 07:40:23;;;;;;;7.50;3.13;;;;;;;;;;5050564;28;20087;-77
2023/04/24 07:42:49;;;;;;;5.60;3.28;;;;;;;;;;5066892;28;20059;-77
2023/04/24 07:45:15;;;;;;;6.45;3.00;;;;;;;;;;5071746;28;20509;-77
2023/04/24 07:47:45;;;;;;;7.20;2.90;;;;;;;;;;5073709;28;20051;-78
2023/04/24 07:50:11;;;;;;;7.32;3.00;;;;;;;;;;5072881;28;20040;-78
2023/04/24 07:52:37;;;;;;;7.93;2.92;;;;;;;;;;5075202;28;20093;-76
2023/04/24 07:55:03;;;;;;;6.93;2.95;;;;;;;;;;5057449;28;20481;-76
2023/04/24 07:57:31;;;;;;;6.20;3.38;;;;;;;;;;5054462;28;20409;-75
2023/04/24 07:59:57;;;;;;;6.15;3.65;;;;;;;;;;5054580;28;20048;-77
2023/04/24 08:02:26;;;;;;;7.97;4.40;;;;;;;;;;5029799;28;20048;-76
2023/04/24 08:04:54;;;;;;;9.18;5.32;;;;;;;;;;5055387;28;20052;-77
2023/04/24 08:07:20;;;;;;;13.65;6.85;;;;;;;;;;5045928;28;20049;-76
2023/04/24 08:09:46;;;;;;;10.05;6.53;;;;;;;;;;5053715;28;20041;-76
2023/04/24 08:12:12;;;;;;;16.40;7.22;;;;;;;;;;5053647;28;20048;-75
2023/04/24 08:14:38;;;;;;;15.85;8.85;;;;;;;;;;5059309;28;20132;-76
2023/04/24 08:17:04;;;;;;;18.75;9.27;;;;;;;;;;5067312;28;20075;-76
2023/04/24 08:19:30;;;;;;;16.10;10.25;;;;;;;;;;5049868;28;20049;-76
2023/04/24 08:21:56;;;;;;;18.65;11.90;;;;;;;;;;5054241;28;20444;-76
2023/04/24 08:24:23;;;;;;;18.02;11.77;;;;;;;;;;5045748;28;20049;-76
2023/04/24 08:26:53;;;;;;;21.17;12.00;;;;;;;;;;5053928;28;20052;-77
2023/04/24 08:29:20;;;;;;;23.40;11.60;;;;;;;;;;5045367;28;20049;-76
2023/04/24 08:31:46;;;;;;;21.95;12.63;;;;;;;;;;5049514;28;20056;-76
2023/04/24 08:34:12;;;;;;;22.00;12.90;;;;;;;;;;5033301;28;20055;-77
2023/04/24 08:36:40;;;;;;;24.98;12.30;;;;;;;;;;5016583;28;20045;-75
2023/04/24 08:39:06;;;;;;;20.40;13.00;;;;;;;;;;5029579;28;20045;-71
2023/04/24 08:41:34;;;;;;;24.85;12.88;;;;;;;;;;5031424;28;20486;-71
2023/04/24 08:44:01;;;;;;;21.83;10.65;;;;;;;;;;5013577;28;20092;-71
2023/04/24 08:46:27;;;;;;;20.42;11.02;;;;;;;;;;5014046;28;20088;-70
2023/04/24 08:48:53;;;;;;;17.35;10.35;;;;;;;;;;5031650;28;20052;-72
2023/04/24 08:51:20;;;;;;;16.13;10.13;;;;;;;;;;5013213;28;20053;-72
2023/04/24 08:53:46;;;;;;;19.40;10.43;;;;;;;;;;5029066;28;20140;-72
2023/04/24 08:56:13;;;;;;;17.50;10.13;;;;;;;;;;5030412;28;20071;-71
2023/04/24 08:58:39;;;;;;;18.30;10.35;;;;;;;;;;5029449;28;20045;-71
2023/04/24 09:01:05;;;;;;;14.85;8.88;;;;;;;;;;5015040;28;20152;-71
2023/04/24 09:03:32;;;;;;;16.10;9.45;;;;;;;;;;5017845;28;20053;-71
2023/04/24 09:05:58;;;;;;;14.98;9.25;;;;;;;;;;5030295;28;20056;-72
2023/04/24 09:08:25;;;;;;;14.85;10.45;;;;;;;;;;5030903;28;20065;-71
2023/04/24 09:10:51;;;;;;;17.02;11.35;;;;;;;;;;5012427;28;20065;-71
2023/04/24 09:13:19;;;;;;;18.02;12.75;;;;;;;;;;5030746;28;20041;-71
2023/04/24 09:15:45;;;;;;;18.75;12.48;;;;;;;;;;5012993;28;20049;-71
2023/04/24 09:18:11;;;;;;;17.77;12.18;;;;;;;;;;5013288;28;20052;-73
2023/04/24 09:20:57;;;;;;;20.35;11.73;;;;;;;;;;5030020;28;20397;-71
2023/04/24 09:23:23;;;;;;;17.17;10.50;;;;;;;;;;5012735;28;20115;-71
2023/04/24 09:25:54;;;;;;;14.07;9.70;;;;;;;;;;4996473;28;20045;-72
2023/04/24 09:28:25;;;;;;;17.42;9.15;;;;;;;;;;5030522;28;20049;-72
2023/04/24 09:31:02;;;;;;;13.93;8.55;;;;;;;;;;5030672;28;20119;-72
2023/04/24 09:33:28;;;;;;;14.73;8.48;;;;;;;;;;5050396;28;20462;-72
2023/04/24 09:35:54;;;;;;;10.35;7.03;;;;;;;;;;5049752;28;20506;-71
2023/04/24 09:38:30;;;;;;;11.40;8.15;;;;;;;;;;5048381;28;20075;-72
2023/04/24 09:40:59;;;;;;;12.95;7.22;;;;;;;;;;5053085;28;20084;-72
2023/04/24 09:43:26;;;;;;;14.45;7.85;;;;;;;;;;5043644;28;20052;-72
2023/04/24 09:45:56;;;;;;;15.85;8.68;;;;;;;;;;5048856;28;20510;-72
2023/04/24 09:48:30;;;;;;;13.48;8.40;;;;;;;;;;5026492;28;20136;-77
2023/04/24 09:50:56;;;;;;;15.23;7.55;;;;;;;;;;5048754;28;20052;-78
2023/04/24 09:53:26;;;;;;;15.93;7.30;;;;;;;;;;5049854;28;20037;-77
2023/04/24 09:55:52;;;;;;;15.52;6.10;;;;;;;;;;5028319;28;20060;-78
2023/04/24 09:58:19;;;;;;;16.45;6.38;;;;;;;;;;5032878;28;20098;-78
2023/04/24 10:00:46;;;;;;;13.10;5.35;;;;;;;;;;5032790;28;20112;-78
2023/04/24 10:03:12;;;;;;;15.50;5.95;;;;;;;;;;5032791;28;20052;-79
2023/04/24 10:05:38;;;;;;;11.25;5.43;;;;;;;;;;5025582;28;20049;-79
2023/04/24 10:08:08;;;;;;;14.15;5.97;;;;;;;;;;5045327;28;20045;-79
2023/04/24 10:10:38;;;;;;;11.88;4.80;;;;;;;;;;5052814;28;20152;-78
2023/04/24 10:13:04;;;;;;;10.05;4.70;;;;;;;;;;5051929;28;20556;-78
2023/04/24 10:15:31;;;;;;;11.25;3.90;;;;;;;;;;5049342;28;20037;-78
2023/04/24 10:17:58;;;;;;;9.52;4.18;;;;;;;;;;5049726;28;20053;-78
2023/04/24 10:20:25;;;;;;;7.00;3.22;;;;;;;;;;5040819;28;20063;-78
2023/04/24 10:22:53;;;;;;;9.63;4.07;;;;;;;;;;5048905;28;20076;-78
2023/04/24 10:25:24;;;;;;;7.45;3.78;;;;;;;;;;5040475;28;20366;-78
2023/04/24 10:27:51;;;;;;;9.27;3.78;;;;;;;;;;5048246;28;20079;-79
2023/04/24 10:30:18;;;;;;;8.85;3.40;;;;;;;;;;5039629;28;20055;-78
2023/04/24 10:32:44;;;;;;;8.82;3.22;;;;;;;;;;5031080;28;20072;-78
2023/04/24 10:35:12;;;;;;;8.02;3.03;;;;;;;;;;5047798;28;20052;-78
2023/04/24 10:37:43;;;;;;;9.73;3.55;;;;;;;;;;5028674;28;20125;-79
2023/04/24 10:40:10;;;;;;;7.60;3.13;;;;;;;;;;5048346;28;20041;-80
2023/04/24 10:42:41;;;;;;;10.30;3.42;;;;;;;;;;5042880;28;20124;-79
2023/04/24 10:45:07;;;;;;;8.75;3.40;;;;;;;;;;5049657;28;20088;-79
2023/04/24 10:47:43;;;;;;;12.82;3.88;;;;;;;;;;5052214;28;20468;-79
2023/04/24 10:50:12;;;;;;;7.07;3.20;;;;;;;;;;5049476;28;20051;-79
2023/04/24 10:52:45;;;;;;;6.68;2.90;;;;;;;;;;5050529;28;20080;-79
2023/04/24 10:55:13;;;;;;;8.57;2.95;;;;;;;;;;5048404;28;20048;-78
2023/04/24 10:57:39;;;;;;;8.05;3.20;;;;;;;;;;5052173;28;20120;-79
2023/04/24 11:00:14;;;;;;;9.80;2.90;;;;;;;;;;5051846;28;20049;-79
2023/04/24 11:02:48;;;;;;;8.63;3.47;;;;;;;;;;5046024;28;20098;-79
2023/04/24 11:05:15;;;;;;;8.40;2.85;;;;;;;;;;5050863;28;20456;-78
2023/04/24 11:07:59;;;;;;;7.05;2.85;;;;;;;;;;5051977;28;20045;-78
2023/04/24 11:10:26;;;;;;;13.27;2.97;;;;;;;;;;5043398;28;20049;-78
2023/04/24 11:12:52;;;;;;;8.13;2.58;;;;;;;;;;5051933;28;20073;-79
2023/04/24 11:15:19;;;;;;;9.60;2.95;;;;;;;;;;5042500;28;20041;-79
2023/04/24 11:17:46;;;;;;;10.32;2.90;;;;;;;;;;5054176;28;20421;-79
2023/04/24 11:20:12;;;;;;;6.72;2.78;;;;;;;;;;5055497;28;20040;-79
2023/04/24 11:22:39;;;;;;;11.25;3.20;;;;;;;;;;5056064;28;20473;-79
2023/04/24 11:25:06;;;;;;;8.15;2.70;;;;;;;;;;5052247;28;20114;-78
2023/04/24 11:27:39;;;;;;;9.38;3.05;;;;;;;;;;5055136;28;20417;-79
2023/04/24 11:30:06;;;;;;;4.68;2.10;;;;;;;;;;5055177;28;20056;-79
2023/04/24 11:32:42;;;;;;;7.38;2.58;;;;;;;;;;5049069;28;20049;-78
2023/04/24 11:35:18;;;;;;;8.48;2.50;;;;;;;;;;5055502;28;20041;-79
2023/04/24 11:37:54;;;;;;;8.98;2.47;;;;;;;;;;5049910;28;20106;-79
2023/04/24 11:40:22;;;;;;;6.72;2.13;;;;;;;;;;5055598;28;20392;-79
2023/04/24 11:42:48;;;;;;;9.15;2.63;;;;;;;;;;5054515;28;20051;-79
2023/04/24 11:45:15;;;;;;;10.80;3.05;;;;;;;;;;5054984;28;20445;-79
2023/04/24 11:47:42;;;;;;;8.85;2.20;;;;;;;;;;5049366;28;20091;-79
2023/04/24 11:50:10;;;;;;;8.60;2.45;;;;;;;;;;5055205;28;20041;-80
2023/04/24 11:52:40;;;;;;;8.57;2.35;;;;;;;;;;5046954;28;20056;-80
2023/04/24 11:55:25;;;;;;;8.13;2.22;;;;;;;;;;5055084;28;20052;-79
2023/04/24 11:57:56;;;;;;;8.77;2.50;;;;;;;;;;5050290;28;20041;-79
2023/04/24 12:00:23;;;;;;;6.63;2.08;;;;;;;;;;5061189;28;20052;-79
2023/04/24 12:02:50;;;;;;;8.70;2.17;;;;;;;;;;5055384;28;20133;-79
2023/04/24 12:05:23;;;;;;;9.02;2.35;;;;;;;;;;5052076;28;20124;-79
2023/04/24 12:07:50;;;;;;;7.07;2.10;;;;;;;;;;5054415;28;20465;-79
2023/04/24 12:10:21;;;;;;;9.38;2.30;;;;;;;;;;5054397;28;20449;-80
2023/04/24 12:12:47;;;;;;;9.43;2.70;;;;;;;;;;5053318;28;20037;-79
2023/04/24 12:15:13;;;;;;;9.00;2.33;;;;;;;;;;5054602;28;20417;-79
2023/04/24 12:17:41;;;;;;;8.07;2.53;;;;;;;;;;5047847;28;20514;-80
2023/04/24 12:20:08;;;;;;;8.60;2.83;;;;;;;;;;5053787;28;20148;-79
2023/04/24 12:22:48;;;;;;;8.27;2.80;;;;;;;;;;5042171;28;20139;-80
2023/04/24 12:25:15;;;;;;;9.70;2.70;;;;;;;;;;5054759;28;20051;-79
2023/04/24 12:27:41;;;;;;;6.45;2.40;;;;;;;;;;5048373;28;20048;-79
2023/04/24 12:30:11;;;;;;;8.25;2.10;;;;;;;;;;5053121;28;20056;-78
2023/04/24 12:32:41;;;;;;;8.13;2.30;;;;;;;;;;5031001;28;20072;-79
2023/04/24 12:35:07;;;;;;;5.53;1.90;;;;;;;;;;5053627;28;20471;-79
2023/04/24 12:37:36;;;;;;;5.45;2.15;;;;;;;;;;5052855;28;20068;-80
2023/04/24 12:40:11;;;;;;;6.95;2.00;;;;;;;;;;5050000;28;20091;-79
2023/04/24 12:42:37;;;;;;;;;;;;;;;;;;5054917;28;20057;-79
2023/04/24 12:45:07;;;;;;;5.88;2.03;;;;;;;;;;5054357;28;20091;-79
2023/04/24 12:47:34;;;;;;;5.32;1.70;;;;;;;;;;5054446;28;20048;-79
2023/04/24 12:50:00;;;;;;;6.10;1.70;;;;;;;;;;5051769;28;20172;-79
2023/04/24 12:52:28;;;;;;;4.00;1.70;;;;;;;;;;5055273;28;20091;-79
2023/04/24 12:54:55;;;;;;;5.75;1.67;;;;;;;;;;5054165;28;20048;-79
2023/04/24 12:57:21;;;;;;;5.72;1.73;;;;;;;;;;5028748;28;20051;-79
2023/04/24 12:59:47;;;;;;;4.22;1.63;;;;;;;;;;5049669;28;20513;-79
2023/04/24 13:02:14;;;;;;;6.47;1.70;;;;;;;;;;5054496;28;20048;-79
2023/04/24 13:04:40;;;;;;;4.70;1.65;;;;;;;;;;5053486;28;20099;-79
2023/04/24 13:07:06;;;;;;;6.25;1.90;;;;;;;;;;5033688;28;20041;-78
2023/04/24 13:09:33;;;;;;;6.68;1.98;;;;;;;;;;5053909;28;20451;-78
2023/04/24 13:11:59;;;;;;;5.38;2.10;;;;;;;;;;5050209;28;20398;-79
2023/04/24 13:14:25;;;;;;;9.90;2.22;;;;;;;;;;5053313;28;20045;-78
2023/04/24 13:16:51;;;;;;;8.23;2.70;;;;;;;;;;5046187;28;20049;-79
2023/04/24 13:19:17;;;;;;;7.65;1.92;;;;;;;;;;5044902;28;20036;-80
2023/04/24 13:21:43;;;;;;;8.40;2.00;;;;;;;;;;5047525;28;20048;-79
2023/04/24 13:24:10;;;;;;;8.63;2.00;;;;;;;;;;5052741;28;20067;-79
2023/04/24 13:26:36;;;;;;;9.57;2.20;;;;;;;;;;5053738;28;20045;-81
2023/04/24 13:29:03;;;;;;;7.05;2.00;;;;;;;;;;5043819;28;20366;-78
2023/04/24 13:31:29;;;;;;;8.68;1.98;;;;;;;;;;5040256;28;20582;-78
2023/04/24 13:33:55;;;;;;;6.57;1.88;;;;;;;;;;5051846;28;20049;-78
2023/04/24 13:36:21;;;;;;;7.00;1.90;;;;;;;;;;5049561;28;20045;-78
2023/04/24 13:38:50;;;;;;;5.20;1.50;;;;;;;;;;5028309;28;20363;-78
2023/04/24 13:41:16;;;;;;;4.80;1.50;;;;;;;;;;5036320;28;20464;-78
2023/04/24 13:43:42;;;;;;;3.47;1.20;;;;;;;;;;5052753;28;20071;-78
2023/04/24 13:46:08;;;;;;;3.20;1.30;;;;;;;;;;5052721;28;20116;-77
2023/04/24 13:48:35;;;;;;;2.45;1.33;;;;;;;;;;5039563;28;20124;-78
2023/04/24 13:51:01;;;;;;;4.47;1.48;;;;;;;;;;5049198;28;20124;-77
2023/04/24 13:53:27;;;;;;;6.00;1.40;;;;;;;;;;5052641;28;20089;-77
2023/04/24 13:55:53;;;;;;;4.03;1.33;;;;;;;;;;5048433;28;20111;-76
2023/04/24 13:58:20;;;;;;;4.00;1.23;;;;;;;;;;5052617;28;20041;-76
2023/04/24 14:00:46;;;;;;;4.25;1.40;;;;;;;;;;5044968;28;20124;-75
2023/04/24 14:03:12;;;;;;;4.82;1.60;;;;;;;;;;5046252;28;20052;-78
2023/04/24 14:05:38;;;;;;;8.30;2.00;;;;;;;;;;5035497;28;20073;-81
2023/04/24 14:08:05;;;;;;;5.63;2.08;;;;;;;;;;5054532;28;20409;-79
2023/04/24 14:10:32;;;;;;;7.22;2.17;;;;;;;;;;5052862;28;20080;-78
2023/04/24 14:12:58;;;;;;;8.75;2.28;;;;;;;;;;5048305;28;20394;-77
2023/04/24 14:15:24;;;;;;;7.43;2.50;;;;;;;;;;5027411;28;20048;-76
2023/04/24 14:17:50;;;;;;;9.88;2.80;;;;;;;;;;5051769;28;20052;-77
2023/04/24 14:20:16;;;;;;;11.55;2.95;;;;;;;;;;5044277;28;20053;-78
2023/04/24 14:22:42;;;;;;;10.63;2.38;;;;;;;;;;5027643;28;20052;-79
2023/04/24 14:25:08;;;;;;;10.40;2.80;;;;;;;;;;5040509;28;20044;-79
2023/04/24 14:27:35;;;;;;;9.10;2.65;;;;;;;;;;5050365;28;20044;-78
2023/04/24 14:30:01;;;;;;;10.25;2.95;;;;;;;;;;5048514;28;20456;-78
2023/04/24 14:32:27;;;;;;;11.77;2.72;;;;;;;;;;5051064;28;20406;-79
2023/04/24 14:34:53;;;;;;;10.80;2.72;;;;;;;;;;5051712;28;20045;-80
2023/04/24 14:37:20;;;;;;;8.50;2.78;;;;;;;;;;5033926;28;20045;-79